sensor_id;sensor_type;location;lat;lon;timestamp;P1;durP1;ratioP1;P2;durP2;ratioP2
73276;SDS011;61501;43.316;5.372;2024-02-15T00:01:40;9.25;;;6.53;;
73276;SDS011;61501;43.316;5.372;2024-02-15T00:04:07;6.95;;;6.25;;
73276;SDS011;61501;43.316;5.372;2024-02-15T00:06:32;8.35;;;6.30;;
73276;SDS011;61501;43.316;5.372;2024-02-15T00:08:58;7.50;;;5.78;;
73276;SDS011;61501;43.316;5.372;2024-02-15T00:11:24;6.95;;;5.80;;
73276;SDS011;61501;43.316;5.372;2024-02-15T00:13:49;8.07;;;5.25;;
73276;SDS011;61501;43.316;5.372;2024-02-15T00:16:15;6.20;;;4.80;;
73276;SDS011;61501;43.316;5.372;2024-02-15T00:18:41;6.85;;;5.32;;
73276;SDS011;61501;43.316;5.372;2024-02-15T00:21:06;7.38;;;5.60;;
73276;SDS011;61501;43.316;5.372;2024-02-15T00:23:32;6.95;;;5.35;;
73276;SDS011;61501;43.316;5.372;2024-02-15T00:25:58;6.63;;;5.47;;
73276;SDS011;61501;43.316;5.372;2024-02-15T00:28:24;7.95;;;5.68;;
73276;SDS011;61501;43.316;5.372;2024-02-15T00:30:51;7.20;;;5.40;;
73276;SDS011;61501;43.316;5.372;2024-02-15T00:33:19;7.03;;;5.53;;
73276;SDS011;61501;43.316;5.372;2024-02-15T00:35:45;6.55;;;5.43;;
73276;SDS011;61501;43.316;5.372;2024-02-15T00:38:11;6.95;;;5.30;;
73276;SDS011;61501;43.316;5.372;2024-02-15T00:40:36;6.97;;;5.15;;
73276;SDS011;61501;43.316;5.372;2024-02-15T00:43:02;7.35;;;5.07;;
73276;SDS011;61501;43.316;5.372;2024-02-15T00:45:28;7.38;;;5.10;;
73276;SDS011;61501;43.316;5.372;2024-02-15T00:47:53;6.80;;;5.28;;
73276;SDS011;61501;43.316;5.372;2024-02-15T00:50:21;6.55;;;5.53;;
73276;SDS011;61501;43.316;5.372;2024-02-15T00:52:46;6.38;;;4.68;;
73276;SDS011;61501;43.316;5.372;2024-02-15T00:55:12;7.55;;;5.38;;
73276;SDS011;61501;43.316;5.372;2024-02-15T00:57:38;6.90;;;5.28;;
73276;SDS011;61501;43.316;5.372;2024-02-15T01:00:04;8.27;;;4.78;;
73276;SDS011;61501;43.316;5.372;2024-02-15T01:02:35;6.45;;;5.07;;
73276;SDS011;61501;43.316;5.372;2024-02-15T01:05:01;6.07;;;5.07;;
73276;SDS011;61501;43.316;5.372;2024-02-15T01:07:26;7.40;;;4.60;;
73276;SDS011;61501;43.316;5.372;2024-02-15T01:09:52;6.55;;;5.22;;
73276;SDS011;61501;43.316;5.372;2024-02-15T01:12:19;6.35;;;5.18;;
73276;SDS011;61501;43.316;5.372;2024-02-15T01:14:45;6.15;;;4.90;;
73276;SDS011;61501;43.316;5.372;2024-02-15T01:17:12;5.78;;;4.65;;
73276;SDS011;61501;43.316;5.372;2024-02-15T01:19:37;5.97;;;4.60;;
73276;SDS011;61501;43.316;5.372;2024-02-15T01:22:03;5.68;;;4.63;;
73276;SDS011;61501;43.316;5.372;2024-02-15T01:24:29;7.85;;;4.65;;
73276;SDS011;61501;43.316;5.372;2024-02-15T01:26:55;6.53;;;5.60;;
73276;SDS011;61501;43.316;5.372;2024-02-15T01:29:21;7.30;;;5.30;;
73276;SDS011;61501;43.316;5.372;2024-02-15T01:31:47;7.90;;;5.22;;
73276;SDS011;61501;43.316;5.372;2024-02-15T01:34:12;6.65;;;5.03;;
73276;SDS011;61501;43.316;5.372;2024-02-15T01:36:38;5.45;;;4.68;;
73276;SDS011;61501;43.316;5.372;2024-02-15T01:39:04;7.45;;;4.88;;
73276;SDS011;61501;43.316;5.372;2024-02-15T01:41:29;6.53;;;5.25;;
73276;SDS011;61501;43.316;5.372;2024-02-15T01:43:55;6.80;;;4.28;;
73276;SDS011;61501;43.316;5.372;2024-02-15T01:46:20;6.72;;;4.88;;
73276;SDS011;61501;43.316;5.372;2024-02-15T01:48:46;8.13;;;5.28;;
73276;SDS011;61501;43.316;5.372;2024-02-15T01:51:14;7.65;;;5.32;;
73276;SDS011;61501;43.316;5.372;2024-02-15T01:53:42;7.80;;;5.50;;
73276;SDS011;61501;43.316;5.372;2024-02-15T01:56:08;6.80;;;5.13;;
73276;SDS011;61501;43.316;5.372;2024-02-15T01:58:36;6.80;;;5.50;;
73276;SDS011;61501;43.316;5.372;2024-02-15T02:01:05;7.72;;;5.45;;
73276;SDS011;61501;43.316;5.372;2024-02-15T02:03:31;8.05;;;6.18;;
73276;SDS011;61501;43.316;5.372;2024-02-15T02:05:57;8.00;;;6.15;;
73276;SDS011;61501;43.316;5.372;2024-02-15T02:08:24;6.85;;;5.50;;
73276;SDS011;61501;43.316;5.372;2024-02-15T02:10:50;6.28;;;5.68;;
73276;SDS011;61501;43.316;5.372;2024-02-15T02:13:16;6.57;;;5.88;;
73276;SDS011;61501;43.316;5.372;2024-02-15T02:15:42;8.90;;;5.80;;
73276;SDS011;61501;43.316;5.372;2024-02-15T02:18:08;8.15;;;5.38;;
73276;SDS011;61501;43.316;5.372;2024-02-15T02:20:35;7.63;;;5.63;;
73276;SDS011;61501;43.316;5.372;2024-02-15T02:23:07;6.85;;;5.95;;
73276;SDS011;61501;43.316;5.372;2024-02-15T02:25:35;6.80;;;5.30;;
73276;SDS011;61501;43.316;5.372;2024-02-15T02:28:00;7.57;;;5.80;;
73276;SDS011;61501;43.316;5.372;2024-02-15T02:30:26;7.80;;;5.35;;
73276;SDS011;61501;43.316;5.372;2024-02-15T02:32:58;7.25;;;5.40;;
73276;SDS011;61501;43.316;5.372;2024-02-15T02:35:24;7.68;;;5.30;;
73276;SDS011;61501;43.316;5.372;2024-02-15T02:37:50;8.48;;;6.60;;
73276;SDS011;61501;43.316;5.372;2024-02-15T02:40:18;9.38;;;5.60;;
73276;SDS011;61501;43.316;5.372;2024-02-15T02:45:18;6.78;;;5.40;;
73276;SDS011;61501;43.316;5.372;2024-02-15T02:47:45;7.65;;;6.00;;
73276;SDS011;61501;43.316;5.372;2024-02-15T02:50:12;7.40;;;5.63;;
73276;SDS011;61501;43.316;5.372;2024-02-15T02:52:39;6.03;;;4.97;;
73276;SDS011;61501;43.316;5.372;2024-02-15T02:55:05;7.95;;;5.32;;
73276;SDS011;61501;43.316;5.372;2024-02-15T02:57:37;7.50;;;5.20;;
73276;SDS011;61501;43.316;5.372;2024-02-15T03:00:07;8.57;;;4.97;;
73276;SDS011;61501;43.316;5.372;2024-02-15T03:02:38;6.47;;;5.20;;
73276;SDS011;61501;43.316;5.372;2024-02-15T03:05:04;6.40;;;4.85;;
73276;SDS011;61501;43.316;5.372;2024-02-15T03:07:34;6.80;;;5.35;;
73276;SDS011;61501;43.316;5.372;2024-02-15T03:10:01;6.95;;;4.85;;
73276;SDS011;61501;43.316;5.372;2024-02-15T03:12:33;7.73;;;5.23;;
73276;SDS011;61501;43.316;5.372;2024-02-15T03:15:01;6.43;;;5.25;;
73276;SDS011;61501;43.316;5.372;2024-02-15T03:17:28;6.55;;;5.28;;
73276;SDS011;61501;43.316;5.372;2024-02-15T03:19:56;6.45;;;4.97;;
73276;SDS011;61501;43.316;5.372;2024-02-15T03:22:22;6.10;;;4.88;;
73276;SDS011;61501;43.316;5.372;2024-02-15T03:24:50;6.60;;;4.80;;
73276;SDS011;61501;43.316;5.372;2024-02-15T03:27:16;7.03;;;4.65;;
73276;SDS011;61501;43.316;5.372;2024-02-15T03:29:41;7.32;;;5.28;;
73276;SDS011;61501;43.316;5.372;2024-02-15T03:32:07;5.78;;;4.40;;
73276;SDS011;61501;43.316;5.372;2024-02-15T03:34:36;6.47;;;4.57;;
73276;SDS011;61501;43.316;5.372;2024-02-15T03:37:01;5.80;;;4.57;;
73276;SDS011;61501;43.316;5.372;2024-02-15T03:39:28;5.57;;;4.18;;
73276;SDS011;61501;43.316;5.372;2024-02-15T03:41:55;7.22;;;4.68;;
73276;SDS011;61501;43.316;5.372;2024-02-15T03:44:22;6.60;;;4.68;;
73276;SDS011;61501;43.316;5.372;2024-02-15T03:46:51;6.22;;;4.32;;
73276;SDS011;61501;43.316;5.372;2024-02-15T03:49:18;5.93;;;4.20;;
73276;SDS011;61501;43.316;5.372;2024-02-15T03:51:43;6.22;;;4.40;;
73276;SDS011;61501;43.316;5.372;2024-02-15T03:54:10;5.53;;;4.40;;
73276;SDS011;61501;43.316;5.372;2024-02-15T03:56:36;5.30;;;4.50;;
73276;SDS011;61501;43.316;5.372;2024-02-15T03:59:02;5.95;;;3.88;;
73276;SDS011;61501;43.316;5.372;2024-02-15T04:01:29;5.60;;;3.90;;
73276;SDS011;61501;43.316;5.372;2024-02-15T04:03:59;5.03;;;3.65;;
73276;SDS011;61501;43.316;5.372;2024-02-15T04:06:25;5.43;;;3.97;;
73276;SDS011;61501;43.316;5.372;2024-02-15T04:08:53;6.88;;;4.75;;
73276;SDS011;61501;43.316;5.372;2024-02-15T04:11:19;4.18;;;3.60;;
73276;SDS011;61501;43.316;5.372;2024-02-15T04:13:47;6.63;;;4.43;;
73276;SDS011;61501;43.316;5.372;2024-02-15T04:16:13;7.00;;;4.78;;
73276;SDS011;61501;43.316;5.372;2024-02-15T04:18:38;5.45;;;3.55;;
73276;SDS011;61501;43.316;5.372;2024-02-15T04:21:04;5.50;;;3.70;;
73276;SDS011;61501;43.316;5.372;2024-02-15T04:23:32;4.65;;;3.70;;
73276;SDS011;61501;43.316;5.372;2024-02-15T04:25:57;5.93;;;3.85;;
73276;SDS011;61501;43.316;5.372;2024-02-15T04:28:24;5.72;;;4.15;;
73276;SDS011;61501;43.316;5.372;2024-02-15T04:30:50;4.72;;;3.80;;
73276;SDS011;61501;43.316;5.372;2024-02-15T04:33:16;5.70;;;3.42;;
73276;SDS011;61501;43.316;5.372;2024-02-15T04:35:41;5.63;;;3.83;;
73276;SDS011;61501;43.316;5.372;2024-02-15T04:38:10;5.25;;;3.70;;
73276;SDS011;61501;43.316;5.372;2024-02-15T04:40:36;5.40;;;3.55;;
73276;SDS011;61501;43.316;5.372;2024-02-15T04:43:04;4.93;;;3.95;;
73276;SDS011;61501;43.316;5.372;2024-02-15T04:45:30;5.03;;;3.80;;
73276;SDS011;61501;43.316;5.372;2024-02-15T04:47:56;4.63;;;3.55;;
73276;SDS011;61501;43.316;5.372;2024-02-15T04:50:27;4.60;;;3.78;;
73276;SDS011;61501;43.316;5.372;2024-02-15T04:52:54;4.68;;;3.83;;
73276;SDS011;61501;43.316;5.372;2024-02-15T04:55:20;4.57;;;3.40;;
73276;SDS011;61501;43.316;5.372;2024-02-15T04:57:47;4.97;;;3.70;;
73276;SDS011;61501;43.316;5.372;2024-02-15T05:00:14;4.90;;;3.40;;
73276;SDS011;61501;43.316;5.372;2024-02-15T05:02:40;4.53;;;3.58;;
73276;SDS011;61501;43.316;5.372;2024-02-15T05:05:08;6.10;;;3.60;;
73276;SDS011;61501;43.316;5.372;2024-02-15T05:07:34;4.85;;;3.58;;
73276;SDS011;61501;43.316;5.372;2024-02-15T05:10:03;7.20;;;4.32;;
73276;SDS011;61501;43.316;5.372;2024-02-15T05:12:31;4.93;;;3.67;;
73276;SDS011;61501;43.316;5.372;2024-02-15T05:14:58;5.00;;;3.40;;
73276;SDS011;61501;43.316;5.372;2024-02-15T05:17:24;6.40;;;3.83;;
73276;SDS011;61501;43.316;5.372;2024-02-15T05:19:50;5.65;;;3.30;;
73276;SDS011;61501;43.316;5.372;2024-02-15T05:22:15;4.97;;;3.38;;
73276;SDS011;61501;43.316;5.372;2024-02-15T05:24:41;4.72;;;3.45;;
73276;SDS011;61501;43.316;5.372;2024-02-15T05:27:07;4.63;;;3.70;;
73276;SDS011;61501;43.316;5.372;2024-02-15T05:29:32;4.88;;;3.63;;
73276;SDS011;61501;43.316;5.372;2024-02-15T05:32:00;6.60;;;3.60;;
73276;SDS011;61501;43.316;5.372;2024-02-15T05:34:26;4.60;;;3.47;;
73276;SDS011;61501;43.316;5.372;2024-02-15T05:36:52;4.60;;;3.58;;
73276;SDS011;61501;43.316;5.372;2024-02-15T05:39:17;4.25;;;3.45;;
73276;SDS011;61501;43.316;5.372;2024-02-15T05:41:46;5.05;;;3.50;;
73276;SDS011;61501;43.316;5.372;2024-02-15T05:44:12;4.85;;;3.55;;
73276;SDS011;61501;43.316;5.372;2024-02-15T05:46:43;4.22;;;3.20;;
73276;SDS011;61501;43.316;5.372;2024-02-15T05:49:08;5.07;;;3.47;;
73276;SDS011;61501;43.316;5.372;2024-02-15T05:51:40;5.45;;;3.30;;
73276;SDS011;61501;43.316;5.372;2024-02-15T05:54:06;4.97;;;3.08;;
73276;SDS011;61501;43.316;5.372;2024-02-15T05:56:31;4.68;;;3.45;;
73276;SDS011;61501;43.316;5.372;2024-02-15T05:58:57;6.93;;;3.15;;
73276;SDS011;61501;43.316;5.372;2024-02-15T06:01:23;4.35;;;3.53;;
73276;SDS011;61501;43.316;5.372;2024-02-15T06:03:49;4.40;;;3.20;;
73276;SDS011;61501;43.316;5.372;2024-02-15T06:06:19;4.85;;;3.45;;
73276;SDS011;61501;43.316;5.372;2024-02-15T06:08:46;5.85;;;3.40;;
73276;SDS011;61501;43.316;5.372;2024-02-15T06:11:13;6.55;;;3.28;;
73276;SDS011;61501;43.316;5.372;2024-02-15T06:13:39;4.53;;;2.90;;
73276;SDS011;61501;43.316;5.372;2024-02-15T06:16:06;6.10;;;3.05;;
73276;SDS011;61501;43.316;5.372;2024-02-15T06:18:34;5.25;;;2.97;;
73276;SDS011;61501;43.316;5.372;2024-02-15T06:21:00;5.10;;;2.90;;
73276;SDS011;61501;43.316;5.372;2024-02-15T06:23:27;4.22;;;2.80;;
73276;SDS011;61501;43.316;5.372;2024-02-15T06:25:53;4.32;;;2.80;;
73276;SDS011;61501;43.316;5.372;2024-02-15T06:28:21;4.85;;;2.92;;
73276;SDS011;61501;43.316;5.372;2024-02-15T06:31:07;4.95;;;2.80;;
73276;SDS011;61501;43.316;5.372;2024-02-15T06:37:34;6.40;;;2.95;;
73276;SDS011;61501;43.316;5.372;2024-02-15T06:42:47;4.47;;;2.80;;
73276;SDS011;61501;43.316;5.372;2024-02-15T06:45:16;6.28;;;3.03;;
73276;SDS011;61501;43.316;5.372;2024-02-15T06:47:43;5.40;;;3.10;;
73276;SDS011;61501;43.316;5.372;2024-02-15T06:50:18;5.50;;;3.10;;
73276;SDS011;61501;43.316;5.372;2024-02-15T06:52:43;4.00;;;2.83;;
73276;SDS011;61501;43.316;5.372;2024-02-15T06:55:10;3.47;;;2.70;;
73276;SDS011;61501;43.316;5.372;2024-02-15T06:57:37;3.72;;;2.40;;
73276;SDS011;61501;43.316;5.372;2024-02-15T07:00:06;3.28;;;2.60;;
73276;SDS011;61501;43.316;5.372;2024-02-15T07:02:34;3.53;;;2.78;;
73276;SDS011;61501;43.316;5.372;2024-02-15T07:05:00;3.85;;;2.35;;
73276;SDS011;61501;43.316;5.372;2024-02-15T07:07:27;3.60;;;2.67;;
73276;SDS011;61501;43.316;5.372;2024-02-15T07:09:53;4.95;;;2.78;;
73276;SDS011;61501;43.316;5.372;2024-02-15T07:12:19;3.50;;;2.40;;
73276;SDS011;61501;43.316;5.372;2024-02-15T07:14:46;3.03;;;2.65;;
73276;SDS011;61501;43.316;5.372;2024-02-15T07:17:15;4.20;;;2.58;;
73276;SDS011;61501;43.316;5.372;2024-02-15T07:19:42;4.15;;;2.75;;
73276;SDS011;61501;43.316;5.372;2024-02-15T07:22:09;4.88;;;2.97;;
73276;SDS011;61501;43.316;5.372;2024-02-15T07:24:35;4.03;;;2.70;;
73276;SDS011;61501;43.316;5.372;2024-02-15T07:27:11;6.38;;;3.00;;
73276;SDS011;61501;43.316;5.372;2024-02-15T07:29:39;4.40;;;2.80;;
73276;SDS011;61501;43.316;5.372;2024-02-15T07:32:06;4.30;;;3.00;;
73276;SDS011;61501;43.316;5.372;2024-02-15T07:34:35;5.28;;;3.90;;
73276;SDS011;61501;43.316;5.372;2024-02-15T07:37:09;5.10;;;3.28;;
73276;SDS011;61501;43.316;5.372;2024-02-15T07:39:36;4.68;;;3.08;;
73276;SDS011;61501;43.316;5.372;2024-02-15T07:42:02;6.40;;;3.20;;
73276;SDS011;61501;43.316;5.372;2024-02-15T07:44:29;4.10;;;3.42;;
73276;SDS011;61501;43.316;5.372;2024-02-15T07:46:58;4.75;;;3.58;;
73276;SDS011;61501;43.316;5.372;2024-02-15T07:49:26;4.68;;;4.15;;
73276;SDS011;61501;43.316;5.372;2024-02-15T07:51:52;7.00;;;4.20;;
73276;SDS011;61501;43.316;5.372;2024-02-15T07:54:18;4.28;;;3.72;;
73276;SDS011;61501;43.316;5.372;2024-02-15T07:56:47;4.93;;;3.97;;
73276;SDS011;61501;43.316;5.372;2024-02-15T07:59:14;5.20;;;3.67;;
73276;SDS011;61501;43.316;5.372;2024-02-15T08:01:43;5.22;;;3.67;;
73276;SDS011;61501;43.316;5.372;2024-02-15T08:04:12;5.05;;;3.60;;
73276;SDS011;61501;43.316;5.372;2024-02-15T08:06:38;5.55;;;4.07;;
73276;SDS011;61501;43.316;5.372;2024-02-15T08:09:04;6.70;;;4.07;;
73276;SDS011;61501;43.316;5.372;2024-02-15T08:11:38;7.45;;;4.20;;
73276;SDS011;61501;43.316;5.372;2024-02-15T08:14:07;7.10;;;4.40;;
73276;SDS011;61501;43.316;5.372;2024-02-15T08:16:35;6.30;;;3.75;;
73276;SDS011;61501;43.316;5.372;2024-02-15T08:19:02;5.15;;;3.15;;
73276;SDS011;61501;43.316;5.372;2024-02-15T08:21:30;5.55;;;3.75;;
73276;SDS011;61501;43.316;5.372;2024-02-15T08:24:01;6.07;;;4.28;;
73276;SDS011;61501;43.316;5.372;2024-02-15T08:26:31;5.75;;;3.80;;
73276;SDS011;61501;43.316;5.372;2024-02-15T08:29:04;4.35;;;3.03;;
73276;SDS011;61501;43.316;5.372;2024-02-15T08:31:31;4.93;;;3.20;;
73276;SDS011;61501;43.316;5.372;2024-02-15T08:33:57;5.93;;;3.40;;
73276;SDS011;61501;43.316;5.372;2024-02-15T08:36:23;4.47;;;3.30;;
73276;SDS011;61501;43.316;5.372;2024-02-15T08:38:49;4.32;;;2.97;;
73276;SDS011;61501;43.316;5.372;2024-02-15T08:41:15;6.93;;;3.35;;
73276;SDS011;61501;43.316;5.372;2024-02-15T08:46:16;4.00;;;3.28;;
73276;SDS011;61501;43.316;5.372;2024-02-15T08:48:42;5.82;;;3.53;;
73276;SDS011;61501;43.316;5.372;2024-02-15T08:51:09;4.82;;;3.55;;
73276;SDS011;61501;43.316;5.372;2024-02-15T08:53:35;7.60;;;3.90;;
73276;SDS011;61501;43.316;5.372;2024-02-15T08:56:04;6.93;;;4.07;;
73276;SDS011;61501;43.316;5.372;2024-02-15T08:58:30;5.97;;;4.40;;
73276;SDS011;61501;43.316;5.372;2024-02-15T09:00:59;12.50;;;4.20;;
73276;SDS011;61501;43.316;5.372;2024-02-15T09:03:27;10.18;;;4.93;;
73276;SDS011;61501;43.316;5.372;2024-02-15T09:05:53;8.30;;;4.13;;
73276;SDS011;61501;43.316;5.372;2024-02-15T09:08:21;7.35;;;4.43;;
73276;SDS011;61501;43.316;5.372;2024-02-15T09:10:49;4.60;;;3.85;;
73276;SDS011;61501;43.316;5.372;2024-02-15T09:13:15;7.43;;;4.60;;
73276;SDS011;61501;43.316;5.372;2024-02-15T09:15:41;4.97;;;3.63;;
73276;SDS011;61501;43.316;5.372;2024-02-15T09:18:09;5.20;;;3.88;;
73276;SDS011;61501;43.316;5.372;2024-02-15T09:20:35;5.15;;;3.90;;
73276;SDS011;61501;43.316;5.372;2024-02-15T09:23:03;5.60;;;3.90;;
73276;SDS011;61501;43.316;5.372;2024-02-15T09:25:39;5.45;;;3.67;;
73276;SDS011;61501;43.316;5.372;2024-02-15T09:28:08;4.78;;;3.58;;
73276;SDS011;61501;43.316;5.372;2024-02-15T09:30:34;6.78;;;3.40;;
73276;SDS011;61501;43.316;5.372;2024-02-15T09:33:00;8.60;;;4.10;;
73276;SDS011;61501;43.316;5.372;2024-02-15T09:35:29;4.65;;;3.15;;
73276;SDS011;61501;43.316;5.372;2024-02-15T09:37:55;7.25;;;3.65;;
73276;SDS011;61501;43.316;5.372;2024-02-15T09:40:21;5.45;;;3.53;;
73276;SDS011;61501;43.316;5.372;2024-02-15T09:42:51;10.98;;;6.35;;
73276;SDS011;61501;43.316;5.372;2024-02-15T09:45:17;6.38;;;4.40;;
73276;SDS011;61501;43.316;5.372;2024-02-15T09:47:45;10.68;;;5.82;;
73276;SDS011;61501;43.316;5.372;2024-02-15T09:50:15;8.70;;;5.05;;
73276;SDS011;61501;43.316;5.372;2024-02-15T09:52:51;9.05;;;4.15;;
73276;SDS011;61501;43.316;5.372;2024-02-15T09:55:21;7.60;;;5.03;;
73276;SDS011;61501;43.316;5.372;2024-02-15T09:57:48;6.43;;;4.60;;
73276;SDS011;61501;43.316;5.372;2024-02-15T10:00:15;5.68;;;3.80;;
73276;SDS011;61501;43.316;5.372;2024-02-15T10:02:47;5.75;;;3.88;;
73276;SDS011;61501;43.316;5.372;2024-02-15T10:05:13;5.47;;;3.45;;
73276;SDS011;61501;43.316;5.372;2024-02-15T10:07:39;6.00;;;3.22;;
73276;SDS011;61501;43.316;5.372;2024-02-15T10:10:14;8.97;;;3.30;;
73276;SDS011;61501;43.316;5.372;2024-02-15T10:12:41;7.10;;;3.50;;
73276;SDS011;61501;43.316;5.372;2024-02-15T10:15:08;5.20;;;3.05;;
73276;SDS011;61501;43.316;5.372;2024-02-15T10:17:35;6.05;;;3.42;;
73276;SDS011;61501;43.316;5.372;2024-02-15T10:20:04;7.22;;;3.10;;
73276;SDS011;61501;43.316;5.372;2024-02-15T10:22:31;6.50;;;2.65;;
73276;SDS011;61501;43.316;5.372;2024-02-15T10:25:13;5.57;;;2.80;;
73276;SDS011;61501;43.316;5.372;2024-02-15T10:27:42;6.95;;;3.10;;
73276;SDS011;61501;43.316;5.372;2024-02-15T10:30:14;8.52;;;2.83;;
73276;SDS011;61501;43.316;5.372;2024-02-15T10:32:41;4.90;;;2.60;;
73276;SDS011;61501;43.316;5.372;2024-02-15T10:35:08;5.18;;;3.08;;
73276;SDS011;61501;43.316;5.372;2024-02-15T10:37:33;3.40;;;2.53;;
73276;SDS011;61501;43.316;5.372;2024-02-15T10:40:05;4.88;;;2.75;;
73276;SDS011;61501;43.316;5.372;2024-02-15T10:45:00;4.68;;;2.70;;
73276;SDS011;61501;43.316;5.372;2024-02-15T10:47:30;4.60;;;3.05;;
73276;SDS011;61501;43.316;5.372;2024-02-15T10:49:55;5.18;;;2.75;;
73276;SDS011;61501;43.316;5.372;2024-02-15T10:52:22;3.70;;;2.67;;
73276;SDS011;61501;43.316;5.372;2024-02-15T10:55:04;3.95;;;2.78;;
73276;SDS011;61501;43.316;5.372;2024-02-15T10:57:34;4.47;;;2.50;;
73276;SDS011;61501;43.316;5.372;2024-02-15T11:00:03;9.02;;;3.08;;
73276;SDS011;61501;43.316;5.372;2024-02-15T11:02:47;5.68;;;2.70;;
73276;SDS011;61501;43.316;5.372;2024-02-15T11:05:22;3.53;;;2.80;;
73276;SDS011;61501;43.316;5.372;2024-02-15T11:07:49;4.90;;;3.03;;
73276;SDS011;61501;43.316;5.372;2024-02-15T11:10:15;5.20;;;3.28;;
73276;SDS011;61501;43.316;5.372;2024-02-15T11:12:42;3.30;;;2.80;;
73276;SDS011;61501;43.316;5.372;2024-02-15T11:15:09;5.25;;;3.42;;
73276;SDS011;61501;43.316;5.372;2024-02-15T11:20:09;5.75;;;3.33;;
73276;SDS011;61501;43.316;5.372;2024-02-15T11:22:36;8.95;;;3.30;;
73276;SDS011;61501;43.316;5.372;2024-02-15T11:25:04;6.32;;;3.58;;
73276;SDS011;61501;43.316;5.372;2024-02-15T11:27:35;6.55;;;3.22;;
73276;SDS011;61501;43.316;5.372;2024-02-15T11:30:03;5.75;;;3.40;;
73276;SDS011;61501;43.316;5.372;2024-02-15T11:35:12;4.30;;;3.00;;
73276;SDS011;61501;43.316;5.372;2024-02-15T11:40:17;5.15;;;3.30;;
73276;SDS011;61501;43.316;5.372;2024-02-15T11:43:01;6.80;;;2.90;;
73276;SDS011;61501;43.316;5.372;2024-02-15T11:45:29;8.00;;;3.00;;
73276;SDS011;61501;43.316;5.372;2024-02-15T11:47:59;6.72;;;2.75;;
73276;SDS011;61501;43.316;5.372;2024-02-15T11:50:26;4.25;;;3.05;;
73276;SDS011;61501;43.316;5.372;2024-02-15T11:53:00;4.68;;;2.85;;
73276;SDS011;61501;43.316;5.372;2024-02-15T11:55:34;6.40;;;3.45;;
73276;SDS011;61501;43.316;5.372;2024-02-15T11:58:01;5.03;;;3.20;;
73276;SDS011;61501;43.316;5.372;2024-02-15T12:00:30;6.15;;;3.38;;
73276;SDS011;61501;43.316;5.372;2024-02-15T12:03:15;5.65;;;2.97;;
73276;SDS011;61501;43.316;5.372;2024-02-15T12:06:00;6.60;;;3.20;;
73276;SDS011;61501;43.316;5.372;2024-02-15T12:08:49;6.07;;;3.17;;
73276;SDS011;61501;43.316;5.372;2024-02-15T12:11:38;6.68;;;2.90;;
73276;SDS011;61501;43.316;5.372;2024-02-15T12:14:40;5.75;;;3.03;;
73276;SDS011;61501;43.316;5.372;2024-02-15T12:17:24;5.88;;;2.80;;
73276;SDS011;61501;43.316;5.372;2024-02-15T12:20:09;4.95;;;2.80;;
73276;SDS011;61501;43.316;5.372;2024-02-15T12:22:41;4.43;;;2.78;;
73276;SDS011;61501;43.316;5.372;2024-02-15T12:25:13;6.77;;;3.30;;
73276;SDS011;61501;43.316;5.372;2024-02-15T12:27:40;4.55;;;3.08;;
73276;SDS011;61501;43.316;5.372;2024-02-15T12:30:08;3.92;;;2.30;;
73276;SDS011;61501;43.316;5.372;2024-02-15T12:32:50;4.68;;;2.55;;
73276;SDS011;61501;43.316;5.372;2024-02-15T12:35:17;4.57;;;2.90;;
73276;SDS011;61501;43.316;5.372;2024-02-15T12:37:48;4.82;;;2.60;;
73276;SDS011;61501;43.316;5.372;2024-02-15T12:40:30;3.40;;;2.40;;
73276;SDS011;61501;43.316;5.372;2024-02-15T12:42:57;4.85;;;2.08;;
73276;SDS011;61501;43.316;5.372;2024-02-15T12:45:25;3.75;;;2.50;;
73276;SDS011;61501;43.316;5.372;2024-02-15T12:47:54;3.80;;;2.35;;
73276;SDS011;61501;43.316;5.372;2024-02-15T12:50:22;5.93;;;2.78;;
73276;SDS011;61501;43.316;5.372;2024-02-15T12:52:53;3.42;;;2.33;;
73276;SDS011;61501;43.316;5.372;2024-02-15T12:55:21;4.05;;;2.67;;
73276;SDS011;61501;43.316;5.372;2024-02-15T12:57:50;4.30;;;2.38;;
73276;SDS011;61501;43.316;5.372;2024-02-15T13:00:18;5.15;;;2.55;;
73276;SDS011;61501;43.316;5.372;2024-02-15T13:02:45;3.38;;;2.10;;
73276;SDS011;61501;43.316;5.372;2024-02-15T13:05:14;4.10;;;2.67;;
73276;SDS011;61501;43.316;5.372;2024-02-15T13:07:40;6.93;;;2.85;;
73276;SDS011;61501;43.316;5.372;2024-02-15T13:10:06;5.32;;;2.85;;
73276;SDS011;61501;43.316;5.372;2024-02-15T13:12:36;3.13;;;2.00;;
73276;SDS011;61501;43.316;5.372;2024-02-15T13:15:03;3.60;;;1.83;;
73276;SDS011;61501;43.316;5.372;2024-02-15T13:17:31;6.00;;;2.30;;
73276;SDS011;61501;43.316;5.372;2024-02-15T13:19:58;4.57;;;2.30;;
73276;SDS011;61501;43.316;5.372;2024-02-15T13:22:30;6.22;;;2.10;;
73276;SDS011;61501;43.316;5.372;2024-02-15T13:24:56;5.53;;;2.42;;
73276;SDS011;61501;43.316;5.372;2024-02-15T13:27:22;2.97;;;1.63;;
73276;SDS011;61501;43.316;5.372;2024-02-15T13:29:49;4.95;;;1.85;;
73276;SDS011;61501;43.316;5.372;2024-02-15T13:32:15;5.78;;;1.90;;
73276;SDS011;61501;43.316;5.372;2024-02-15T13:34:42;3.75;;;2.08;;
73276;SDS011;61501;43.316;5.372;2024-02-15T13:37:09;5.95;;;2.05;;
73276;SDS011;61501;43.316;5.372;2024-02-15T13:39:35;4.68;;;2.00;;
73276;SDS011;61501;43.316;5.372;2024-02-15T13:42:03;3.30;;;1.80;;
73276;SDS011;61501;43.316;5.372;2024-02-15T13:44:29;3.67;;;1.75;;
73276;SDS011;61501;43.316;5.372;2024-02-15T13:46:55;3.35;;;1.70;;
73276;SDS011;61501;43.316;5.372;2024-02-15T13:49:22;2.67;;;1.75;;
73276;SDS011;61501;43.316;5.372;2024-02-15T13:51:48;3.97;;;1.98;;
73276;SDS011;61501;43.316;5.372;2024-02-15T13:54:16;4.07;;;1.73;;
73276;SDS011;61501;43.316;5.372;2024-02-15T13:56:43;4.38;;;1.90;;
73276;SDS011;61501;43.316;5.372;2024-02-15T13:59:09;5.80;;;1.88;;
73276;SDS011;61501;43.316;5.372;2024-02-15T14:01:38;3.20;;;1.77;;
73276;SDS011;61501;43.316;5.372;2024-02-15T14:04:10;5.53;;;1.80;;
73276;SDS011;61501;43.316;5.372;2024-02-15T14:06:36;3.03;;;1.70;;
73276;SDS011;61501;43.316;5.372;2024-02-15T14:09:05;5.82;;;1.65;;
73276;SDS011;61501;43.316;5.372;2024-02-15T14:11:31;2.88;;;1.88;;
73276;SDS011;61501;43.316;5.372;2024-02-15T14:13:57;3.42;;;1.83;;
73276;SDS011;61501;43.316;5.372;2024-02-15T14:16:26;4.18;;;1.98;;
73276;SDS011;61501;43.316;5.372;2024-02-15T14:18:52;4.55;;;2.25;;
73276;SDS011;61501;43.316;5.372;2024-02-15T14:21:19;4.88;;;2.45;;
73276;SDS011;61501;43.316;5.372;2024-02-15T14:23:45;3.38;;;2.05;;
73276;SDS011;61501;43.316;5.372;2024-02-15T14:26:11;6.93;;;2.30;;
73276;SDS011;61501;43.316;5.372;2024-02-15T14:28:36;3.50;;;2.28;;
73276;SDS011;61501;43.316;5.372;2024-02-15T14:31:06;3.15;;;1.92;;
73276;SDS011;61501;43.316;5.372;2024-02-15T14:33:50;4.10;;;1.83;;
73276;SDS011;61501;43.316;5.372;2024-02-15T14:36:16;4.03;;;2.33;;
73276;SDS011;61501;43.316;5.372;2024-02-15T14:38:43;4.47;;;1.75;;
73276;SDS011;61501;43.316;5.372;2024-02-15T14:41:14;6.78;;;2.00;;
73276;SDS011;61501;43.316;5.372;2024-02-15T14:43:41;4.05;;;2.05;;
73276;SDS011;61501;43.316;5.372;2024-02-15T14:46:06;4.18;;;1.70;;
73276;SDS011;61501;43.316;5.372;2024-02-15T14:48:33;2.80;;;1.80;;
73276;SDS011;61501;43.316;5.372;2024-02-15T14:50:59;6.85;;;2.15;;
73276;SDS011;61501;43.316;5.372;2024-02-15T14:53:25;2.65;;;2.08;;
73276;SDS011;61501;43.316;5.372;2024-02-15T14:55:54;4.00;;;2.30;;
73276;SDS011;61501;43.316;5.372;2024-02-15T14:58:20;5.70;;;2.28;;
73276;SDS011;61501;43.316;5.372;2024-02-15T15:00:47;4.40;;;2.20;;
73276;SDS011;61501;43.316;5.372;2024-02-15T15:03:13;4.32;;;2.20;;
73276;SDS011;61501;43.316;5.372;2024-02-15T15:05:39;3.47;;;1.90;;
73276;SDS011;61501;43.316;5.372;2024-02-15T15:08:24;4.80;;;2.28;;
73276;SDS011;61501;43.316;5.372;2024-02-15T15:11:08;4.28;;;2.50;;
73276;SDS011;61501;43.316;5.372;2024-02-15T15:13:53;4.00;;;2.50;;
73276;SDS011;61501;43.316;5.372;2024-02-15T15:16:18;3.83;;;2.35;;